Evolution — 2FKB6 — position and weather

sailwx.info

Track history (hours):
 
Tides and Currents Weather Stations Pressure Air Temp Water Temp Dewpoint Dewpoint Depression Visibility Wind Speed Wind Dir Waves Ship Positions

Evolution

Last reported at 2015-Aug-13 06:26 UTC. Time now 2015-Aug-31 21:53 UTC.
Position N 41°01' E 002°27'.
Warning: this ship's position is 18 days out of date.

Type: Sailing vessel. MMSI: 235091936.

Date/timePositionNaut miles runAvg speedWind from/ knotsBaromVisibWave heightAir tempDewpointWater temp
2015-Aug-13 06:26N 41°01' E 002°27'8 8.6
2015-Aug-13 05:29N 40°55' E 002°21'8 8.9
2015-Aug-13 04:33N 40°48' E 002°14'9 8.9
2015-Aug-13 03:31N 40°41' E 002°07'9 8.8
2015-Aug-13 02:33N 40°34' E 002°01'9 8.8
2015-Aug-13 01:32N 40°26' E 001°54'9 9.0
2015-Aug-13 00:33N 40°19' E 001°48'9 8.9
2015-Aug-12 23:33N 40°12' E 001°41'10 9.4
2015-Aug-12 22:32N 40°04' E 001°33'9 9.3
2015-Aug-12 21:33N 39°57' E 001°26'10 9.4
2015-Aug-12 20:29N 39°49' E 001°19'139 8.7
2015-Aug-12 04:32N 37°54' W 000°22'8 8.2
2015-Aug-12 03:32N 37°47' W 000°28'10 8.5
2015-Aug-12 02:21N 37°39' W 000°35'  
2015-Aug-09 15:33N 36°51' W 008°31'7 6.5
2015-Aug-09 14:33N 36°53' W 008°39'34 6.5
2015-Aug-09 09:16N 37°04' W 009°19'12 7.0
2015-Aug-09 07:32N 37°08' W 009°34'7 7.2
2015-Aug-09 06:33N 37°10' W 009°42'7 6.9
2015-Aug-09 05:33N 37°12' W 009°50'7 6.9
2015-Aug-09 04:32N 37°15' W 009°58'10 6.9
2015-Aug-09 03:05N 37°18' W 010°10'4 6.9
2015-Aug-09 02:33N 37°19' W 010°15'10 6.8
2015-Aug-09 01:07N 37°21' W 010°27'14 7.0
2015-Aug-08 23:04N 37°27' W 010°44'  
2015-Aug-04 22:24N 37°48' W 024°01'5 6.4
2015-Aug-04 21:33N 37°48' W 024°08'6 6.4
2015-Aug-04 20:33N 37°47' W 024°16'7 6.6
2015-Aug-04 19:33N 37°46' W 024°24'7 7.3
2015-Aug-04 18:33N 37°45' W 024°34'7 7.3
2015-Aug-04 17:33N 37°44' W 024°43'7 7.4
2015-Aug-04 16:33N 37°43' W 024°52'7 7.3
2015-Aug-04 15:33N 37°42' W 025°01'7 7.2
2015-Aug-04 14:33N 37°42' W 025°10'7 7.5
2015-Aug-04 13:33N 37°41' W 025°20'7 7.0
2015-Aug-04 12:33N 37°41' W 025°28'7 7.2
2015-Aug-04 11:33N 37°43' W 025°37'2 0.1
2015-Aug-03 14:23N 37°44' W 025°40'2 2.9
2015-Aug-03 13:33N 37°44' W 025°43'7 7.2
2015-Aug-03 12:33N 37°46' W 025°51'6 6.0
2015-Aug-03 11:34N 37°48' W 025°59'6 6.0
2015-Aug-03 10:33N 37°50' W 026°06'6 6.0
2015-Aug-03 09:33N 37°52' W 026°13'6 5.8
2015-Aug-03 08:33N 37°53' W 026°20'6 6.0
2015-Aug-03 07:33N 37°55' W 026°28'7 6.6
2015-Aug-03 06:33N 37°57' W 026°36'  
Track history (hours):
 
Tides and Currents Weather Stations Pressure Air Temp Water Temp Dewpoint Dewpoint Depression Visibility Wind Speed Wind Dir Waves Ship Positions

Evolution

Last reported at 2015-Aug-13 06:26 UTC. Time now 2015-Aug-31 21:53 UTC.
Position N 41°01' E 002°27'.
Warning: this ship's position is 18 days out of date.

Type: Sailing vessel. MMSI: 235091936.

Date/timePositionNaut miles runAvg speedWind from/ knotsBaromVisibWave heightAir tempDewpointWater temp
2015-Aug-13 06:26N 41°01' E 002°27'8 8.6
2015-Aug-13 05:29N 40°55' E 002°21'8 8.9
2015-Aug-13 04:33N 40°48' E 002°14'9 8.9
2015-Aug-13 03:31N 40°41' E 002°07'9 8.8
2015-Aug-13 02:33N 40°34' E 002°01'9 8.8
2015-Aug-13 01:32N 40°26' E 001°54'9 9.0
2015-Aug-13 00:33N 40°19' E 001°48'9 8.9
2015-Aug-12 23:33N 40°12' E 001°41'10 9.4
2015-Aug-12 22:32N 40°04' E 001°33'9 9.3
2015-Aug-12 21:33N 39°57' E 001°26'10 9.4
2015-Aug-12 20:29N 39°49' E 001°19'139 8.7
2015-Aug-12 04:32N 37°54' W 000°22'8 8.2
2015-Aug-12 03:32N 37°47' W 000°28'10 8.5
2015-Aug-12 02:21N 37°39' W 000°35'  
2015-Aug-09 15:33N 36°51' W 008°31'7 6.5
2015-Aug-09 14:33N 36°53' W 008°39'34 6.5
2015-Aug-09 09:16N 37°04' W 009°19'12 7.0
2015-Aug-09 07:32N 37°08' W 009°34'7 7.2
2015-Aug-09 06:33N 37°10' W 009°42'7 6.9
2015-Aug-09 05:33N 37°12' W 009°50'7 6.9
2015-Aug-09 04:32N 37°15' W 009°58'10 6.9
2015-Aug-09 03:05N 37°18' W 010°10'4 6.9
2015-Aug-09 02:33N 37°19' W 010°15'10 6.8
2015-Aug-09 01:07N 37°21' W 010°27'14 7.0
2015-Aug-08 23:04N 37°27' W 010°44'  
2015-Aug-04 22:24N 37°48' W 024°01'5 6.4
2015-Aug-04 21:33N 37°48' W 024°08'6 6.4
2015-Aug-04 20:33N 37°47' W 024°16'7 6.6
2015-Aug-04 19:33N 37°46' W 024°24'7 7.3
2015-Aug-04 18:33N 37°45' W 024°34'7 7.3
2015-Aug-04 17:33N 37°44' W 024°43'7 7.4
2015-Aug-04 16:33N 37°43' W 024°52'7 7.3
2015-Aug-04 15:33N 37°42' W 025°01'7 7.2
2015-Aug-04 14:33N 37°42' W 025°10'7 7.5
2015-Aug-04 13:33N 37°41' W 025°20'7 7.0
2015-Aug-04 12:33N 37°41' W 025°28'7 7.2
2015-Aug-04 11:33N 37°43' W 025°37'2 0.1
2015-Aug-03 14:23N 37°44' W 025°40'2 2.9
2015-Aug-03 13:33N 37°44' W 025°43'7 7.2
2015-Aug-03 12:33N 37°46' W 025°51'6 6.0
2015-Aug-03 11:34N 37°48' W 025°59'6 6.0
2015-Aug-03 10:33N 37°50' W 026°06'6 6.0
2015-Aug-03 09:33N 37°52' W 026°13'6 5.8
2015-Aug-03 08:33N 37°53' W 026°20'6 6.0
2015-Aug-03 07:33N 37°55' W 026°28'7 6.6
2015-Aug-03 06:33N 37°57' W 026°36'  

Dump ship's entire track history